Franklin, Idaho
Current Conditions -  °F | °C
As of 4:51 PM on Friday 19 Dec 2014 (Local Time) from KLGU Reporting Station
Overcast Overcast  
Wind Chill: 35°   Ceiling: 7000
Heat Index: 40°   Visibility: 10mi
Dew Point: 31°   Wind: 7mph
Humidity: 70%   Direction: 360°N
Pressure: 30.09"   Gusts: NA
Location:  42.01°N, 111.81°W
Report Text: KLGU 192351Z AUTO 36006KT 10SM FEW055 BKN070 OVC120 04/M01 A3009 RMK AO2 SLP198 T00441006 10061 20033 58004
Loading
Personal Weather Stations






























Interactive Weather Map New forecast layout! Learn more

10-Day Weather Forecast

Advertisements
Track Severe Weather on mobile